Time;durP1;ratioP1;P1;durP2;ratioP2;P2;SDS_P1;SDS_P2;PMS_P1;PMS_P2;Temp;Humidity;BMP_temperature;BMP_pressure;BME280_temperature;BME280_humidity;BME280_pressure;Samples;Min_cycle;Max_cycle;Signal;HPM_P1;HPM_P2
2021/01/14 00:02:01;;;;;;;1.63;0.70;;;19.30;49.20;;;;;;4990942;28;20485;-71
2021/01/14 00:04:27;;;;;;;1.07;0.70;;;19.30;48.90;;;;;;4992307;28;21005;-71
2021/01/14 00:06:54;;;;;;;0.73;0.73;;;19.30;48.80;;;;;;4993583;28;20500;-71
2021/01/14 00:09:20;;;;;;;1.03;0.83;;;19.30;48.70;;;;;;4993327;28;20476;-71
2021/01/14 00:11:46;;;;;;;0.83;0.60;;;19.20;48.70;;;;;;4976884;28;20548;-72
2021/01/14 00:14:12;;;;;;;0.60;0.60;;;19.20;48.30;;;;;;4993820;28;21004;-72
2021/01/14 00:16:39;;;;;;;2.20;0.90;;;19.20;48.50;;;;;;4982958;28;20484;-71
2021/01/14 00:19:05;;;;;;;1.23;1.13;;;19.20;48.40;;;;;;4992723;28;20488;-71
2021/01/14 00:21:32;;;;;;;3.23;1.13;;;19.20;48.30;;;;;;4991842;28;20480;-71
2021/01/14 00:23:58;;;;;;;0.80;0.80;;;19.20;48.40;;;;;;4987782;28;20504;-71
2021/01/14 00:26:24;;;;;;;0.90;0.70;;;19.20;48.80;;;;;;4993394;28;20859;-72
2021/01/14 00:28:50;;;;;;;1.83;0.80;;;19.20;48.50;;;;;;4989779;28;20488;-71
2021/01/14 00:31:20;;;;;;;1.77;0.80;;;19.20;48.30;;;;;;4980927;28;20491;-70
2021/01/14 00:33:47;;;;;;;1.13;0.80;;;19.20;48.40;;;;;;4992310;28;20922;-70
2021/01/14 00:36:13;;;;;;;0.70;0.70;;;19.20;48.20;;;;;;4991590;28;20500;-70
2021/01/14 00:38:39;;;;;;;1.37;0.77;;;19.30;48.30;;;;;;4993421;28;20472;-71
2021/01/14 00:41:05;;;;;;;1.07;0.63;;;19.30;48.20;;;;;;4991644;28;20480;-71
2021/01/14 00:43:31;;;;;;;1.17;0.70;;;19.30;48.70;;;;;;4990900;28;20253;-71
2021/01/14 00:45:57;;;;;;;0.73;0.73;;;19.20;48.70;;;;;;4991260;28;20569;-70
2021/01/14 00:48:24;;;;;;;0.70;0.70;;;19.20;48.20;;;;;;4992506;28;20987;-70
2021/01/14 00:50:51;;;;;;;1.87;0.70;;;19.20;48.20;;;;;;4991936;28;20508;-70
2021/01/14 00:53:17;;;;;;;0.90;0.70;;;19.20;48.20;;;;;;4991550;28;20484;-71
2021/01/14 00:55:43;;;;;;;0.70;0.60;;;19.20;48.10;;;;;;4983382;28;20488;-70
2021/01/14 00:58:09;;;;;;;0.70;0.70;;;19.20;48.20;;;;;;4992181;28;20481;-71
2021/01/14 01:00:35;;;;;;;3.47;1.57;;;19.20;48.20;;;;;;4989704;28;20540;-71
2021/01/14 01:03:01;;;;;;;0.80;0.80;;;19.20;48.10;;;;;;4992218;28;20474;-70
2021/01/14 01:05:28;;;;;;;0.87;0.87;;;19.20;48.30;;;;;;4981192;28;20498;-71
2021/01/14 01:07:57;;;;;;;1.17;0.67;;;19.20;48.40;;;;;;4990867;28;20504;-70
2021/01/14 01:10:23;;;;;;;1.10;0.83;;;19.20;48.50;;;;;;4989490;28;20493;-70
2021/01/14 01:12:53;;;;;;;3.97;1.43;;;19.20;48.70;;;;;;4992470;28;20523;-70
2021/01/14 01:15:19;;;;;;;1.10;0.87;;;19.20;48.70;;;;;;4981201;28;20491;-70
2021/01/14 01:17:45;;;;;;;1.33;0.90;;;19.20;48.50;;;;;;4993049;28;20480;-71
2021/01/14 01:20:12;;;;;;;0.70;0.70;;;19.20;48.50;;;;;;4991250;28;20487;-71
2021/01/14 01:22:38;;;;;;;0.70;0.70;;;19.20;48.60;;;;;;4990665;28;21315;-70
2021/01/14 01:25:07;;;;;;;1.17;0.87;;;19.20;48.40;;;;;;4991994;28;20530;-70
2021/01/14 01:27:34;;;;;;;1.50;0.90;;;19.10;48.20;;;;;;4990248;28;20485;-71
2021/01/14 01:30:00;;;;;;;1.10;0.80;;;19.10;48.10;;;;;;4992466;28;21013;-71
2021/01/14 01:32:26;;;;;;;1.80;1.60;;;19.20;48.20;;;;;;4989986;28;20492;-70
2021/01/14 01:34:52;;;;;;;1.43;1.20;;;19.10;47.90;;;;;;4990790;28;20492;-70
2021/01/14 01:37:19;;;;;;;1.17;1.07;;;19.10;48.00;;;;;;4980252;28;20489;-70
2021/01/14 01:39:45;;;;;;;2.60;1.60;;;19.10;47.90;;;;;;4991484;28;20496;-71
2021/01/14 01:42:12;;;;;;;0.60;0.60;;;19.10;47.90;;;;;;4988468;28;20485;-70
2021/01/14 01:44:39;;;;;;;1.43;1.00;;;19.10;47.90;;;;;;4990723;28;20496;-70
2021/01/14 01:47:06;;;;;;;1.43;0.70;;;19.10;47.80;;;;;;4983110;28;20899;-71
2021/01/14 01:49:32;;;;;;;1.20;1.10;;;19.10;48.00;;;;;;4993622;28;20485;-70
2021/01/14 01:51:58;;;;;;;1.40;1.30;;;19.10;47.90;;;;;;4990479;28;20501;-70
2021/01/14 01:54:24;;;;;;;0.80;0.80;;;19.10;47.90;;;;;;4988680;28;20492;-70
2021/01/14 01:56:51;;;;;;;1.07;1.03;;;19.10;47.90;;;;;;4990372;28;20480;-70
2021/01/14 01:59:19;;;;;;;1.23;1.10;;;19.10;47.90;;;;;;4989924;28;20480;-71
2021/01/14 02:01:45;;;;;;;1.13;1.13;;;19.10;47.90;;;;;;4991196;28;20572;-71
2021/01/14 02:04:11;;;;;;;1.73;1.40;;;19.10;48.00;;;;;;4990799;28;20525;-71
2021/01/14 02:06:42;;;;;;;1.03;1.03;;;19.10;47.90;;;;;;4991091;28;20488;-72
2021/01/14 02:09:09;;;;;;;2.27;1.23;;;19.10;48.20;;;;;;4981315;28;20537;-71
2021/01/14 02:11:38;;;;;;;1.07;1.07;;;19.10;47.90;;;;;;4990646;28;20555;-70
2021/01/14 02:14:12;;;;;;;1.33;1.23;;;19.10;47.80;;;;;;4989770;28;20488;-70
2021/01/14 02:16:40;;;;;;;1.00;1.00;;;19.20;48.00;;;;;;4988119;28;20603;-71
2021/01/14 02:19:10;;;;;;;1.37;1.17;;;19.20;47.90;;;;;;4980058;28;20489;-72
2021/01/14 02:21:37;;;;;;;1.50;1.40;;;19.20;47.90;;;;;;4954377;28;21239;-70
2021/01/14 02:24:06;;;;;;;1.60;1.50;;;19.20;47.80;;;;;;4969036;28;20485;-70
2021/01/14 02:26:33;;;;;;;1.00;0.90;;;19.20;47.80;;;;;;4970858;28;20565;-70
2021/01/14 02:28:59;;;;;;;1.23;1.23;;;19.20;47.70;;;;;;4970588;28;20627;-72
2021/01/14 02:31:25;;;;;;;1.70;1.60;;;19.30;47.80;;;;;;4971395;28;20572;-71
2021/01/14 02:33:53;;;;;;;2.40;1.57;;;19.20;47.50;;;;;;4973039;28;20498;-70
2021/01/14 02:36:19;;;;;;;2.73;1.40;;;19.20;47.60;;;;;;4969541;28;20567;-71
2021/01/14 02:38:45;;;;;;;0.90;0.90;;;19.20;47.90;;;;;;4971586;28;20489;-70
2021/01/14 02:41:11;;;;;;;1.83;1.70;;;19.20;48.00;;;;;;4971702;28;20486;-70
2021/01/14 02:43:39;;;;;;;1.53;1.43;;;19.20;47.70;;;;;;4970870;28;20484;-70
2021/01/14 02:46:05;;;;;;;1.77;1.33;;;19.20;47.80;;;;;;4961367;28;20564;-71
2021/01/14 02:48:34;;;;;;;1.30;1.30;;;19.20;47.70;;;;;;4970727;28;20525;-70
2021/01/14 02:51:02;;;;;;;1.77;1.23;;;19.20;47.80;;;;;;4971470;28;20504;-71
2021/01/14 02:53:29;;;;;;;1.27;1.17;;;19.10;47.60;;;;;;4973074;28;20485;-71
2021/01/14 02:55:55;;;;;;;2.90;1.50;;;19.10;47.60;;;;;;4974957;28;20567;-70
2021/01/14 02:58:21;;;;;;;2.20;1.17;;;19.10;47.50;;;;;;4975980;28;21001;-71
2021/01/14 03:00:49;;;;;;;1.37;1.37;;;19.10;47.60;;;;;;4972157;28;21143;-71
2021/01/14 03:03:15;;;;;;;1.63;1.03;;;19.10;47.60;;;;;;4973649;28;20492;-70
2021/01/14 03:05:41;;;;;;;1.33;1.33;;;19.10;47.60;;;;;;4975306;28;21692;-70
2021/01/14 03:08:07;;;;;;;1.70;1.43;;;19.10;47.70;;;;;;4974054;28;20512;-71
2021/01/14 03:10:34;;;;;;;1.50;1.30;;;19.10;47.80;;;;;;4974236;28;20478;-71
2021/01/14 03:13:00;;;;;;;1.33;1.33;;;19.10;47.80;;;;;;4974416;28;20490;-71
2021/01/14 03:15:26;;;;;;;2.77;1.33;;;19.10;47.90;;;;;;4974804;28;20570;-71
2021/01/14 03:17:53;;;;;;;1.03;1.03;;;19.10;47.80;;;;;;4971644;28;21053;-72
2021/01/14 03:20:19;;;;;;;1.40;1.40;;;19.10;47.80;;;;;;4966672;28;20496;-71
2021/01/14 03:22:46;;;;;;;1.03;1.03;;;19.10;47.70;;;;;;4972217;28;20524;-71
2021/01/14 03:25:12;;;;;;;1.20;1.20;;;19.10;47.70;;;;;;4964454;28;20481;-75
2021/01/14 03:27:39;;;;;;;1.30;1.20;;;19.10;47.70;;;;;;4973489;28;20927;-70
2021/01/14 03:30:06;;;;;;;1.70;1.23;;;19.10;47.60;;;;;;4963921;28;20486;-71
2021/01/14 03:32:32;;;;;;;1.43;1.43;;;19.10;47.50;;;;;;4975084;28;20489;-72
2021/01/14 03:34:59;;;;;;;1.30;1.30;;;19.10;47.50;;;;;;4971190;28;20489;-71
2021/01/14 03:37:25;;;;;;;1.90;1.80;;;19.10;47.60;;;;;;4975192;28;20985;-72
2021/01/14 03:39:51;;;;;;;1.60;1.50;;;19.10;47.50;;;;;;4974547;28;20474;-72
2021/01/14 03:42:19;;;;;;;1.40;1.40;;;19.10;47.60;;;;;;4962497;28;20485;-72
2021/01/14 03:44:45;;;;;;;1.10;1.10;;;19.10;47.50;;;;;;4974797;28;20580;-72
2021/01/14 03:47:11;;;;;;;1.90;1.77;;;19.10;47.50;;;;;;4974681;28;20492;-72
2021/01/14 03:49:37;;;;;;;1.90;1.80;;;19.10;47.50;;;;;;4974677;28;20556;-72
2021/01/14 03:52:05;;;;;;;1.70;1.60;;;19.10;47.60;;;;;;4974630;28;20486;-72
2021/01/14 03:54:31;;;;;;;1.23;1.23;;;19.00;47.40;;;;;;4972551;28;20544;-69
2021/01/14 03:56:57;;;;;;;1.67;1.57;;;19.10;47.50;;;;;;4973348;28;20505;-70
2021/01/14 03:59:23;;;;;;;1.20;1.20;;;19.00;47.40;;;;;;4972556;28;20484;-70
2021/01/14 04:01:49;;;;;;;1.57;1.30;;;19.10;48.20;;;;;;4973239;28;20497;-73
2021/01/14 04:04:15;;;;;;;1.93;1.20;;;19.10;47.70;;;;;;4972862;28;20989;-72
2021/01/14 04:06:42;;;;;;;1.30;1.30;;;19.10;47.70;;;;;;4965266;28;20555;-70
2021/01/14 04:09:09;;;;;;;1.17;1.07;;;19.10;47.70;;;;;;4974144;28;20490;-72
2021/01/14 04:11:35;;;;;;;2.17;1.70;;;19.10;47.70;;;;;;4971506;28;20484;-72
2021/01/14 04:14:01;;;;;;;1.77;1.67;;;19.10;47.60;;;;;;4974625;28;20497;-70
2021/01/14 04:16:27;;;;;;;1.33;1.23;;;19.10;47.50;;;;;;4976085;28;20493;-71
2021/01/14 04:18:54;;;;;;;1.60;1.37;;;19.10;47.40;;;;;;4964387;28;20569;-71
2021/01/14 04:21:20;;;;;;;1.70;1.60;;;19.20;47.50;;;;;;4966219;28;20489;-71
2021/01/14 04:23:46;;;;;;;1.43;1.43;;;19.20;47.50;;;;;;4966874;28;21076;-70
2021/01/14 04:26:13;;;;;;;1.33;1.23;;;19.20;47.50;;;;;;4974241;28;21041;-70
2021/01/14 04:28:39;;;;;;;3.10;1.70;;;19.20;47.40;;;;;;4949838;28;20494;-71
2021/01/14 04:31:06;;;;;;;1.40;1.20;;;19.30;47.50;;;;;;4973514;28;20485;-71
2021/01/14 04:33:32;;;;;;;1.77;1.67;;;19.30;47.40;;;;;;4970125;28;20881;-70
2021/01/14 04:35:59;;;;;;;1.60;1.50;;;19.20;47.20;;;;;;4970242;28;20556;-70
2021/01/14 04:38:26;;;;;;;1.43;1.40;;;19.30;47.20;;;;;;4964976;28;20489;-71
2021/01/14 04:40:56;;;;;;;1.60;1.50;;;19.20;47.20;;;;;;4986259;28;20496;-71
2021/01/14 04:43:24;;;;;;;1.87;1.77;;;19.20;47.30;;;;;;4974423;28;20580;-70
2021/01/14 04:45:51;;;;;;;1.57;1.57;;;19.20;47.00;;;;;;4970603;28;20493;-69
2021/01/14 04:48:18;;;;;;;1.70;1.53;;;19.20;46.90;;;;;;4972663;28;21013;-70
2021/01/14 04:50:44;;;;;;;1.80;1.70;;;19.20;46.90;;;;;;4974102;28;20997;-71
2021/01/14 04:53:10;;;;;;;1.63;1.60;;;19.20;46.90;;;;;;4971800;28;21227;-69
2021/01/14 04:55:42;;;;;;;1.30;1.27;;;19.20;46.90;;;;;;4973094;28;21214;-72
2021/01/14 04:58:09;;;;;;;2.40;1.40;;;19.20;46.90;;;;;;4970033;28;20569;-70
2021/01/14 05:00:36;;;;;;;1.40;1.40;;;19.20;47.00;;;;;;4971674;28;20505;-70
2021/01/14 05:03:05;;;;;;;1.97;1.87;;;19.10;46.90;;;;;;4970408;28;20489;-70
2021/01/14 05:05:32;;;;;;;2.13;1.97;;;19.10;47.00;;;;;;4977647;28;22457;-70
2021/01/14 05:08:03;;;;;;;1.97;1.87;;;19.10;47.00;;;;;;4973243;28;20494;-70
2021/01/14 05:10:31;;;;;;;1.70;1.60;;;19.10;46.90;;;;;;4968080;28;20603;-71
2021/01/14 05:12:57;;;;;;;2.20;2.00;;;19.10;46.90;;;;;;4975252;28;20490;-70
2021/01/14 05:15:24;;;;;;;3.20;1.80;;;19.20;46.90;;;;;;4971476;28;20487;-70
2021/01/14 05:17:51;;;;;;;2.03;1.93;;;19.10;46.80;;;;;;4971161;28;20632;-69
2021/01/14 05:20:18;;;;;;;1.77;1.67;;;19.20;46.90;;;;;;4959815;28;20494;-70
2021/01/14 05:22:44;;;;;;;3.47;2.20;;;19.20;46.80;;;;;;4969221;28;20485;-70
2021/01/14 05:25:10;;;;;;;1.80;1.67;;;19.10;46.80;;;;;;4972261;28;20474;-70
2021/01/14 05:27:37;;;;;;;2.60;2.10;;;19.10;47.00;;;;;;4974104;28;20555;-70
2021/01/14 05:30:04;;;;;;;2.00;1.90;;;19.20;47.00;;;;;;4970895;28;20490;-70
2021/01/14 05:32:37;;;;;;;2.53;2.33;;;19.20;46.80;;;;;;4971229;28;20528;-72
2021/01/14 05:35:06;;;;;;;2.70;2.10;;;19.20;46.70;;;;;;4970188;28;20646;-70
2021/01/14 05:37:37;;;;;;;6.33;2.40;;;19.20;46.50;;;;;;4970838;28;20494;-70
2021/01/14 05:40:07;;;;;;;2.50;2.40;;;19.20;46.40;;;;;;4970826;28;20639;-70
2021/01/14 05:42:33;;;;;;;3.83;2.10;;;19.30;46.50;;;;;;4971829;28;20501;-70
2021/01/14 05:44:59;;;;;;;1.90;1.80;;;19.20;46.50;;;;;;4969856;28;20494;-70
2021/01/14 05:47:26;;;;;;;2.30;2.00;;;19.20;46.50;;;;;;4971107;28;21070;-71
2021/01/14 05:50:00;;;;;;;1.97;1.87;;;19.20;46.30;;;;;;4971694;28;20489;-70
2021/01/14 05:52:27;;;;;;;2.27;2.17;;;19.20;46.30;;;;;;4970526;28;20477;-71
2021/01/14 05:55:03;;;;;;;2.63;2.03;;;19.30;46.00;;;;;;4970720;28;20551;-70
2021/01/14 05:57:31;;;;;;;2.90;2.50;;;19.30;46.00;;;;;;4972240;28;20490;-71
2021/01/14 05:59:59;;;;;;;2.57;2.37;;;19.40;46.00;;;;;;4969822;28;20497;-71
2021/01/14 06:02:29;;;;;;;2.40;2.20;;;19.40;45.80;;;;;;4973347;28;21070;-72
2021/01/14 06:04:55;;;;;;;3.27;2.77;;;19.30;45.80;;;;;;4971875;28;21007;-72
2021/01/14 06:07:22;;;;;;;3.30;2.30;;;19.30;46.00;;;;;;4974152;28;20559;-71
2021/01/14 06:09:49;;;;;;;2.50;1.97;;;19.30;46.00;;;;;;4974919;28;20497;-71
2021/01/14 06:12:15;;;;;;;3.00;2.57;;;19.30;45.60;;;;;;4975264;28;20862;-68
2021/01/14 06:14:42;;;;;;;2.73;2.07;;;19.30;45.50;;;;;;4970081;28;20516;-72
2021/01/14 06:17:09;;;;;;;2.80;2.20;;;19.30;45.10;;;;;;4971369;28;20986;-69
2021/01/14 06:19:35;;;;;;;2.40;1.90;;;19.30;45.00;;;;;;4966156;28;21130;-69
2021/01/14 06:22:01;;;;;;;6.20;2.73;;;19.30;44.90;;;;;;4953344;28;20489;-70
2021/01/14 06:24:28;;;;;;;2.30;2.10;;;19.30;45.00;;;;;;4967200;28;21782;-71
2021/01/14 06:26:56;;;;;;;2.00;1.80;;;19.20;44.80;;;;;;4964349;28;21069;-70
2021/01/14 06:29:24;;;;;;;2.70;2.30;;;19.20;44.80;;;;;;4964086;28;21236;-71
2021/01/14 06:31:51;;;;;;;4.03;2.43;;;19.20;45.30;;;;;;4970173;28;20503;-69
2021/01/14 06:34:18;;;;;;;3.47;3.20;;;19.20;44.60;;;;;;4977827;28;20480;-70
2021/01/14 06:36:49;;;;;;;2.90;2.67;;;19.20;44.70;;;;;;4988289;28;20515;-69
2021/01/14 06:39:16;;;;;;;5.10;2.40;;;19.20;44.80;;;;;;4976059;28;21029;-69
2021/01/14 06:41:43;;;;;;;5.93;3.00;;;19.20;45.00;;;;;;4989282;28;20484;-70
2021/01/14 06:44:11;;;;;;;2.10;2.00;;;19.20;45.50;;;;;;4989472;28;20476;-70
2021/01/14 06:46:37;;;;;;;2.10;2.00;;;19.20;45.20;;;;;;4992359;28;20479;-70
2021/01/14 06:49:08;;;;;;;2.00;1.90;;;19.20;45.00;;;;;;4988137;28;20488;-71
2021/01/14 06:51:52;;;;;;;2.23;2.13;;;19.20;45.70;;;;;;4990662;28;20481;-71
2021/01/14 06:54:19;;;;;;;2.53;2.33;;;19.30;45.10;;;;;;4986927;28;20590;-71
2021/01/14 06:56:47;;;;;;;2.40;2.27;;;19.30;45.10;;;;;;4990479;28;20973;-71
2021/01/14 06:59:17;;;;;;;3.57;2.00;;;19.30;45.00;;;;;;4979832;28;20602;-70
2021/01/14 07:01:45;;;;;;;1.77;1.67;;;19.40;45.30;;;;;;4975919;28;20488;-70
2021/01/14 07:04:18;;;;;;;2.37;2.10;;;19.30;45.30;;;;;;4990585;28;20516;-69
2021/01/14 07:06:45;;;;;;;2.00;1.90;;;19.30;45.30;;;;;;4980487;28;20524;-70
2021/01/14 07:09:13;;;;;;;2.50;2.37;;;19.30;45.50;;;;;;4972072;28;20495;-70
2021/01/14 07:11:42;;;;;;;3.17;2.10;;;19.30;45.50;;;;;;4987118;28;20481;-70
2021/01/14 07:14:12;;;;;;;2.07;1.97;;;19.40;45.50;;;;;;4983878;28;20539;-70
2021/01/14 07:16:41;;;;;;;2.27;2.17;;;19.30;45.50;;;;;;4987461;28;20488;-71
2021/01/14 07:19:07;;;;;;;2.17;2.07;;;19.40;45.50;;;;;;4983084;28;20485;-70
2021/01/14 07:21:34;;;;;;;1.83;1.73;;;19.40;45.60;;;;;;4974705;28;20520;-70
2021/01/14 07:24:03;;;;;;;2.03;1.87;;;19.40;45.50;;;;;;4979895;28;20554;-70
2021/01/14 07:26:29;;;;;;;2.17;2.07;;;19.40;45.60;;;;;;4986238;28;20491;-70
2021/01/14 07:28:55;;;;;;;2.77;2.53;;;19.40;45.60;;;;;;4985367;28;20580;-71
2021/01/14 07:31:22;;;;;;;1.80;1.70;;;19.40;45.60;;;;;;4985264;28;20491;-71
2021/01/14 07:33:49;;;;;;;2.63;2.43;;;19.40;45.70;;;;;;4975472;28;20501;-70
2021/01/14 07:36:17;;;;;;;1.83;1.73;;;19.30;45.60;;;;;;4984682;28;20481;-70
2021/01/14 07:38:46;;;;;;;2.67;2.50;;;19.30;45.70;;;;;;4963224;28;20488;-71
2021/01/14 07:41:12;;;;;;;2.33;2.23;;;19.30;45.70;;;;;;4974675;28;20550;-71
2021/01/14 07:43:38;;;;;;;2.10;2.00;;;19.30;45.70;;;;;;4988283;28;20481;-71
2021/01/14 07:46:15;;;;;;;2.17;2.07;;;19.30;46.00;;;;;;4979946;28;20501;-71
2021/01/14 07:48:41;;;;;;;2.03;1.93;;;19.30;46.00;;;;;;4977699;28;20489;-70
2021/01/14 07:51:08;;;;;;;1.80;1.70;;;19.30;46.00;;;;;;4991456;28;20485;-70
2021/01/14 07:53:34;;;;;;;2.40;2.23;;;19.30;46.00;;;;;;4986554;28;20543;-70
2021/01/14 07:56:21;;;;;;;2.40;2.13;;;19.30;46.00;;;;;;4995212;28;20566;-71
2021/01/14 07:58:48;;;;;;;2.10;2.00;;;19.30;46.00;;;;;;4988028;28;20884;-70
2021/01/14 08:01:14;;;;;;;2.63;1.90;;;19.40;46.10;;;;;;4989093;28;20483;-72
2021/01/14 08:03:40;;;;;;;2.00;1.43;;;19.40;46.10;;;;;;4990154;28;20537;-70
2021/01/14 08:06:26;;;;;;;2.30;2.10;;;19.30;46.00;;;;;;4993367;28;21476;-70
2021/01/14 08:09:00;;;;;;;1.67;1.60;;;19.30;46.00;;;;;;4973690;28;20962;-71
2021/01/14 08:11:27;;;;;;;1.67;1.57;;;19.30;46.00;;;;;;4994856;28;21008;-71
2021/01/14 08:14:06;;;;;;;2.23;2.13;;;19.20;45.90;;;;;;4982874;28;20500;-70
2021/01/14 08:16:33;;;;;;;2.30;2.20;;;19.20;45.90;;;;;;5002756;28;20481;-70
2021/01/14 08:19:10;;;;;;;1.83;1.73;;;19.20;46.10;;;;;;4989548;28;20488;-69
2021/01/14 08:21:37;;;;;;;2.03;1.77;;;19.20;46.20;;;;;;4989167;28;20507;-70
2021/01/14 08:24:03;;;;;;;1.97;1.83;;;19.20;46.10;;;;;;4990589;28;20497;-70
2021/01/14 08:26:29;;;;;;;3.30;1.67;;;19.20;46.10;;;;;;4987886;28;20606;-70
2021/01/14 08:29:00;;;;;;;1.70;1.60;;;19.20;46.00;;;;;;4988848;28;20500;-70
2021/01/14 08:31:35;;;;;;;2.07;1.97;;;19.20;46.20;;;;;;4992574;28;21047;-70
2021/01/14 08:34:02;;;;;;;3.20;2.30;;;19.20;46.10;;;;;;4987282;28;21453;-71
2021/01/14 08:36:28;;;;;;;1.77;1.67;;;19.20;46.10;;;;;;4988978;28;20492;-70
2021/01/14 08:38:55;;;;;;;2.97;2.03;;;19.20;46.30;;;;;;4980697;28;20503;-71
2021/01/14 08:41:27;;;;;;;2.47;1.97;;;19.20;46.20;;;;;;4998071;28;20542;-70
2021/01/14 08:43:54;;;;;;;1.80;1.70;;;19.20;46.20;;;;;;4989869;28;21196;-71
2021/01/14 08:46:38;;;;;;;1.70;1.57;;;19.20;46.00;;;;;;4990834;28;20549;-71
2021/01/14 08:49:11;;;;;;;2.93;2.13;;;19.20;46.10;;;;;;4987833;28;20489;-71
2021/01/14 08:51:38;;;;;;;1.87;1.77;;;19.20;46.00;;;;;;4993581;28;20853;-70
2021/01/14 08:54:05;;;;;;;1.90;1.80;;;19.20;45.90;;;;;;4990490;28;20492;-71
2021/01/14 08:56:32;;;;;;;2.87;1.90;;;19.30;46.10;;;;;;4992891;28;21190;-71
2021/01/14 08:59:03;;;;;;;1.53;1.43;;;19.30;46.00;;;;;;4986734;28;20550;-71
2021/01/14 09:01:32;;;;;;;1.90;1.70;;;19.30;46.00;;;;;;4996236;28;21249;-71
2021/01/14 09:03:58;;;;;;;1.90;1.80;;;19.30;46.00;;;;;;4987574;28;20487;-71
2021/01/14 09:06:32;;;;;;;1.60;1.50;;;19.30;46.80;;;;;;4988878;28;20555;-71
2021/01/14 09:08:59;;;;;;;2.00;1.77;;;19.30;45.90;;;;;;4974165;28;21303;-70
2021/01/14 09:11:26;;;;;;;1.77;1.70;;;19.40;45.90;;;;;;4976629;28;20493;-70
2021/01/14 09:14:09;;;;;;;2.10;1.93;;;19.40;45.80;;;;;;4984740;28;20484;-70
2021/01/14 09:16:35;;;;;;;3.30;2.00;;;19.40;45.70;;;;;;4979980;28;20476;-70
2021/01/14 09:19:07;;;;;;;1.93;1.83;;;19.40;45.70;;;;;;4986030;28;20481;-71
2021/01/14 09:21:36;;;;;;;1.43;1.37;;;19.40;45.70;;;;;;4992282;28;20857;-69
2021/01/14 09:24:07;;;;;;;1.63;1.57;;;19.50;45.70;;;;;;4991447;28;20485;-70
2021/01/14 09:26:34;;;;;;;1.87;1.73;;;19.50;45.50;;;;;;4988112;28;20568;-71
2021/01/14 09:29:00;;;;;;;2.37;2.27;;;19.60;45.50;;;;;;4984664;28;21036;-71
2021/01/14 09:31:29;;;;;;;2.80;1.90;;;19.60;45.40;;;;;;4988156;28;20515;-71
2021/01/14 09:33:57;;;;;;;1.73;1.63;;;19.60;45.30;;;;;;4988546;28;20496;-70
2021/01/14 09:36:23;;;;;;;1.70;1.60;;;19.60;45.30;;;;;;4989762;28;20492;-71
2021/01/14 09:38:51;;;;;;;1.97;1.87;;;19.60;46.00;;;;;;4986590;28;20487;-71
2021/01/14 09:41:24;;;;;;;1.80;1.70;;;19.60;45.20;;;;;;4993944;28;21554;-70
2021/01/14 09:43:52;;;;;;;1.83;1.73;;;19.60;45.20;;;;;;4987802;28;20504;-71
2021/01/14 09:46:19;;;;;;;2.27;1.80;;;19.60;45.30;;;;;;4989919;28;21144;-71
2021/01/14 09:48:46;;;;;;;1.57;1.37;;;19.60;45.20;;;;;;4983158;28;20484;-70
2021/01/14 09:51:12;;;;;;;3.53;1.57;;;19.50;45.20;;;;;;4991565;28;20484;-70
2021/01/14 09:53:46;;;;;;;2.50;1.80;;;19.50;45.20;;;;;;4988708;28;20551;-69
2021/01/14 09:56:15;;;;;;;2.20;2.10;;;19.50;45.30;;;;;;4991737;28;20476;-71
2021/01/14 09:58:42;;;;;;;1.77;1.67;;;19.50;45.20;;;;;;4989671;28;20480;-70
2021/01/14 10:01:08;;;;;;;1.93;1.80;;;19.50;45.30;;;;;;4979868;28;20491;-71
2021/01/14 10:03:35;;;;;;;1.90;1.80;;;19.50;45.50;;;;;;4987725;28;20544;-71
2021/01/14 10:06:01;;;;;;;1.67;1.57;;;19.40;45.40;;;;;;4989215;28;20500;-70
2021/01/14 10:08:27;;;;;;;1.97;1.63;;;19.40;45.40;;;;;;4989057;28;21033;-70
2021/01/14 10:10:53;;;;;;;1.33;1.33;;;19.40;46.40;;;;;;4987771;28;20496;-70
2021/01/14 10:13:19;;;;;;;2.00;1.90;;;19.40;45.50;;;;;;4989308;28;20550;-71
2021/01/14 10:15:46;;;;;;;1.90;1.80;;;19.40;45.50;;;;;;4989875;28;20488;-71
2021/01/14 10:18:26;;;;;;;3.40;1.60;;;19.40;45.50;;;;;;4986424;28;20473;-71
2021/01/14 10:20:59;;;;;;;1.93;1.83;;;19.40;45.60;;;;;;4987301;28;20472;-71
2021/01/14 10:23:26;;;;;;;2.00;1.90;;;19.40;45.50;;;;;;4988787;28;21008;-70
2021/01/14 10:25:52;;;;;;;1.77;1.67;;;19.40;45.50;;;;;;4986906;28;20567;-71
2021/01/14 10:28:18;;;;;;;1.87;1.60;;;19.40;45.70;;;;;;4972027;28;20912;-70
2021/01/14 10:30:44;;;;;;;1.60;1.50;;;19.40;45.70;;;;;;4985692;28;20489;-70
2021/01/14 10:33:10;;;;;;;2.00;1.90;;;19.40;45.60;;;;;;4989996;28;20487;-71
2021/01/14 10:35:37;;;;;;;4.43;1.77;;;19.30;45.60;;;;;;4988264;28;20488;-70
2021/01/14 10:38:05;;;;;;;1.90;1.80;;;19.40;45.70;;;;;;4989971;28;20491;-71
2021/01/14 10:40:38;;;;;;;1.50;1.40;;;19.30;45.60;;;;;;4986838;28;20568;-72
2021/01/14 10:43:05;;;;;;;1.80;1.70;;;19.40;45.60;;;;;;4991610;28;20573;-73
2021/01/14 10:45:33;;;;;;;2.10;1.90;;;19.40;45.40;;;;;;4989021;28;20987;-70
2021/01/14 10:48:20;;;;;;;2.60;1.80;;;19.40;45.40;;;;;;4977248;28;20476;-71
2021/01/14 10:50:51;;;;;;;1.77;1.63;;;19.50;45.30;;;;;;4974072;28;20996;-71
2021/01/14 10:53:27;;;;;;;1.93;1.83;;;19.50;45.40;;;;;;4979002;28;20555;-70
2021/01/14 10:56:03;;;;;;;1.53;1.43;;;19.50;45.30;;;;;;4984083;28;20479;-71
2021/01/14 10:58:29;;;;;;;1.73;1.63;;;19.50;45.30;;;;;;4990010;28;20484;-71
2021/01/14 11:00:56;;;;;;;2.13;1.70;;;19.50;45.20;;;;;;4987830;28;20495;-70
2021/01/14 11:03:22;;;;;;;1.40;1.40;;;19.50;45.10;;;;;;4984741;28;20488;-70
2021/01/14 11:05:50;;;;;;;1.53;1.40;;;19.60;45.20;;;;;;4986585;28;20493;-71
2021/01/14 11:08:19;;;;;;;1.80;1.70;;;19.60;45.30;;;;;;4977414;28;21142;-70
2021/01/14 11:10:46;;;;;;;2.10;1.57;;;19.60;45.30;;;;;;4986641;28;20480;-70
2021/01/14 11:13:13;;;;;;;2.30;1.50;;;19.70;45.30;;;;;;4991107;28;20493;-71
2021/01/14 11:15:39;;;;;;;1.73;1.60;;;19.70;45.10;;;;;;4991078;28;20550;-70
2021/01/14 11:18:07;;;;;;;1.30;1.20;;;19.70;45.00;;;;;;4987754;28;20507;-69
2021/01/14 11:20:33;;;;;;;2.07;1.80;;;19.70;44.90;;;;;;4990349;28;21016;-70
2021/01/14 11:23:00;;;;;;;0.93;0.93;;;19.70;45.00;;;;;;4970674;28;21605;-70
2021/01/14 11:25:27;;;;;;;2.30;1.83;;;19.70;45.10;;;;;;4988406;28;21063;-72
2021/01/14 11:27:53;;;;;;;1.97;1.70;;;19.60;45.20;;;;;;5004283;28;20481;-71
2021/01/14 11:30:20;;;;;;;1.63;1.50;;;19.60;45.20;;;;;;4988395;28;20497;-69
2021/01/14 11:32:46;;;;;;;1.60;1.50;;;19.60;45.20;;;;;;4990167;28;21064;-71
2021/01/14 11:35:12;;;;;;;1.40;1.33;;;19.50;45.20;;;;;;4987944;28;20576;-71
2021/01/14 11:37:38;;;;;;;1.97;1.87;;;19.50;45.30;;;;;;4984908;28;21311;-71
2021/01/14 11:40:07;;;;;;;2.10;1.97;;;19.50;45.20;;;;;;4995294;28;20477;-71
2021/01/14 11:42:33;;;;;;;1.70;1.43;;;19.60;45.30;;;;;;4989948;28;20497;-71
2021/01/14 11:44:59;;;;;;;1.93;1.83;;;19.60;45.30;;;;;;4992897;28;20485;-70
2021/01/14 11:47:25;;;;;;;1.50;1.40;;;19.70;45.30;;;;;;4979802;28;20489;-71
2021/01/14 11:49:51;;;;;;;1.50;1.40;;;19.60;45.20;;;;;;4987477;28;20492;-71
2021/01/14 11:52:19;;;;;;;1.80;1.70;;;19.60;45.10;;;;;;5005147;28;20497;-70
2021/01/14 11:54:46;;;;;;;1.80;1.70;;;19.60;45.80;;;;;;4991350;28;21023;-70
2021/01/14 11:57:13;;;;;;;2.00;1.33;;;19.60;45.10;;;;;;4981561;28;20570;-71
2021/01/14 11:59:39;;;;;;;1.57;1.47;;;19.60;45.10;;;;;;4978030;28;20492;-70
2021/01/14 12:02:05;;;;;;;1.93;1.83;;;19.50;45.00;;;;;;4990622;28;20495;-70
2021/01/14 12:04:32;;;;;;;1.83;1.73;;;19.50;45.10;;;;;;4984868;28;20531;-72
2021/01/14 12:06:58;;;;;;;1.33;1.33;;;19.50;45.10;;;;;;5004943;28;20499;-71
2021/01/14 12:09:24;;;;;;;1.60;1.50;;;19.50;45.20;;;;;;4986539;28;20493;-70
2021/01/14 12:11:53;;;;;;;2.00;1.80;;;19.50;45.20;;;;;;4989793;28;20480;-71
2021/01/14 12:14:20;;;;;;;1.50;1.40;;;19.50;45.10;;;;;;4978201;28;20500;-70
2021/01/14 12:16:46;;;;;;;2.00;1.90;;;19.50;45.10;;;;;;4990186;28;20839;-71
2021/01/14 12:19:12;;;;;;;1.97;1.87;;;19.50;45.10;;;;;;4988674;28;20527;-70
2021/01/14 12:21:38;;;;;;;1.70;1.60;;;19.50;45.00;;;;;;4991103;28;20477;-70
2021/01/14 12:24:05;;;;;;;3.00;1.80;;;19.50;45.20;;;;;;4979689;28;20527;-70
2021/01/14 12:26:31;;;;;;;1.70;1.63;;;19.50;45.30;;;;;;5002395;28;20493;-71
2021/01/14 12:28:57;;;;;;;1.73;1.73;;;19.50;45.20;;;;;;4989306;28;20488;-71
2021/01/14 12:31:24;;;;;;;1.60;1.50;;;19.50;45.30;;;;;;4993962;28;20480;-70
2021/01/14 12:33:51;;;;;;;2.37;1.30;;;19.40;45.50;;;;;;4993016;28;20488;-71
2021/01/14 12:36:17;;;;;;;1.80;1.80;;;19.40;45.70;;;;;;4994464;28;20480;-70
2021/01/14 12:38:43;;;;;;;1.50;1.50;;;19.30;45.80;;;;;;4996758;28;22103;-71
2021/01/14 12:41:09;;;;;;;1.80;1.73;;;19.30;46.00;;;;;;4993933;28;20975;-71
2021/01/14 12:43:36;;;;;;;3.07;1.90;;;19.30;46.10;;;;;;4981279;28;20489;-70
2021/01/14 12:46:02;;;;;;;1.33;1.23;;;19.20;45.90;;;;;;4992942;28;20488;-70
2021/01/14 12:48:29;;;;;;;2.40;1.90;;;19.20;45.90;;;;;;4987166;28;20488;-70
2021/01/14 12:50:55;;;;;;;1.47;1.37;;;19.20;45.90;;;;;;4991649;28;20907;-71